Hartford, Wisconsin
Current Conditions -  °F | °C
As of 5:55 PM on Saturday 25 Oct 2014 (Local Time) from KETB Reporting Station
Clear Clear  
Wind Chill: 59°   Ceiling: Unl
Heat Index: 59°   Visibility: 10mi
Dew Point: 23°   Wind: 14mph
Humidity: 25%   Direction: 290°WNW
Pressure: 29.89"   Gusts: 25mph
Location:  43.32°N, 88.38°W
Report Text: KETB 252255Z AUTO 29012G22KT 10SM CLR 15/M05 A2989 RMK AO2
Loading
Personal Weather Stations






























Interactive Weather Map New forecast layout! Learn more

10-Day Weather Forecast

Advertisements
Track Severe Weather on mobile